Time,TemperatureF,DewpointF,PressureIn,WindDirection,WindDirectionDegrees,WindSpeedMPH,WindSpeedGustMPH,Humidity,HourlyPrecipIn,Conditions,Clouds,dailyrainin,SoftwareType,DateUTC
2013-06-12 00:03:00,79.0,66.0,-100.00,WSW,245,1.0,1.0,65,-99.99,,,-99.99,,2013-06-12 05:03:00,
2013-06-12 00:12:00,79.0,66.0,-100.00,WSW,245,1.0,1.0,65,-99.99,,,-99.99,,2013-06-12 05:12:00,
2013-06-12 00:22:00,79.0,66.0,-100.00,WSW,245,1.0,1.0,65,-99.99,,,-99.99,,2013-06-12 05:22:00,
2013-06-12 02:02:00,73.0,65.0,-100.00,SSW,200,1.0,1.0,76,-99.99,,,-99.99,,2013-06-12 07:02:00,
2013-06-12 02:12:00,73.0,65.0,-100.00,SSW,200,1.0,1.0,76,-99.99,,,-99.99,,2013-06-12 07:12:00,
2013-06-12 02:22:00,73.0,65.0,-100.00,SSW,200,1.0,1.0,76,-99.99,,,-99.99,,2013-06-12 07:22:00,
2013-06-12 02:33:00,68.0,61.0,-100.00,SSW,205,1.0,1.0,79,-99.99,,,-99.99,,2013-06-12 07:33:00,
2013-06-12 02:43:00,68.0,61.0,-100.00,SSW,205,1.0,1.0,79,-99.99,,,-99.99,,2013-06-12 07:43:00,
2013-06-12 02:53:00,68.0,61.0,-100.00,SSW,205,1.0,1.0,79,-99.99,,,-99.99,,2013-06-12 07:53:00,
2013-06-12 03:02:00,73.0,67.0,-100.00,SSW,205,1.0,1.0,82,-99.99,,,-99.99,,2013-06-12 08:02:00,
2013-06-12 03:12:00,73.0,67.0,-100.00,SSW,205,1.0,1.0,82,-99.99,,,-99.99,,2013-06-12 08:12:00,
2013-06-12 03:22:00,73.0,67.0,-100.00,SSW,205,1.0,1.0,82,-99.99,,,-99.99,,2013-06-12 08:22:00,
2013-06-12 03:33:00,72.0,66.0,-100.00,NW,305,1.0,1.0,82,-99.99,,,-99.99,,2013-06-12 08:33:00,
2013-06-12 03:43:00,72.0,66.0,-100.00,NW,305,1.0,1.0,82,-99.99,,,-99.99,,2013-06-12 08:43:00,
2013-06-12 03:53:00,72.0,66.0,-100.00,NW,305,1.0,1.0,82,-99.99,,,-99.99,,2013-06-12 08:53:00,
2013-06-12 04:00:00,71.0,67.0,-100.00,SSW,195,1.0,1.0,86,-99.99,,,-99.99,,2013-06-12 09:00:00,
2013-06-12 04:01:00,73.0,67.0,-100.00,WSW,255,1.0,1.0,83,-99.99,,,-99.99,,2013-06-12 09:01:00,
2013-06-12 04:11:00,73.0,68.0,-100.00,West,280,1.0,1.0,82,-99.99,,,-99.99,,2013-06-12 09:11:00,
2013-06-12 04:22:00,73.0,68.0,-100.00,West,280,1.0,1.0,82,-99.99,,,-99.99,,2013-06-12 09:22:00,
2013-06-12 04:33:00,71.0,67.0,-100.00,SSW,195,1.0,1.0,86,-99.99,,,-99.99,,2013-06-12 09:33:00,
2013-06-12 04:42:00,71.0,67.0,-100.00,SSW,195,1.0,1.0,86,-99.99,,,-99.99,,2013-06-12 09:42:00,
2013-06-12 04:53:00,71.0,67.0,-100.00,SSW,195,1.0,1.0,86,-99.99,,,-99.99,,2013-06-12 09:53:00,
2013-06-12 05:30:00,74.0,69.0,-100.00,NW,310,1.0,1.0,84,-99.99,,,-99.99,,2013-06-12 10:30:00,
2013-06-12 05:33:00,77.0,73.0,-100.00,West,265,1.0,1.0,87,-99.99,,,-99.99,,2013-06-12 10:33:00,
2013-06-12 05:43:00,77.0,73.0,-100.00,West,265,1.0,1.0,87,-99.99,,,-99.99,,2013-06-12 10:43:00,
2013-06-12 05:53:00,77.0,73.0,-100.00,West,265,1.0,1.0,87,-99.99,,,-99.99,,2013-06-12 10:53:00,
2013-06-12 06:02:00,74.0,69.0,-100.00,NW,310,1.0,1.0,84,-99.99,,,-99.99,,2013-06-12 11:02:00,
2013-06-12 06:12:00,74.0,69.0,-100.00,NW,310,1.0,1.0,84,-99.99,,,-99.99,,2013-06-12 11:12:00,
2013-06-12 06:24:00,74.0,69.0,-100.00,NW,310,1.0,1.0,84,-99.99,,,-99.99,,2013-06-12 11:24:00,
2013-06-12 06:43:00,75.0,69.0,-100.00,NW,305,1.0,1.0,80,-99.99,,,-99.99,,2013-06-12 11:43:00,
2013-06-12 06:53:00,75.0,69.0,-100.00,NW,305,1.0,1.0,80,-99.99,,,-99.99,,2013-06-12 11:53:00,
2013-06-12 07:02:00,72.0,63.0,-100.00,West,260,1.0,1.0,75,-99.99,,,-99.99,,2013-06-12 12:02:00,
2013-06-12 07:11:00,72.0,63.0,-100.00,West,260,1.0,1.0,75,-99.99,,,-99.99,,2013-06-12 12:11:00,
2013-06-12 07:23:00,72.0,63.0,-100.00,West,260,1.0,1.0,75,-99.99,,,-99.99,,2013-06-12 12:23:00,
2013-06-12 07:33:00,72.0,61.0,-100.00,West,275,1.0,1.0,69,-99.99,,,-99.99,,2013-06-12 12:33:00,
2013-06-12 07:53:00,72.0,61.0,-100.00,West,275,1.0,1.0,69,-99.99,,,-99.99,,2013-06-12 12:53:00,
2013-06-12 08:12:00,78.0,66.0,-100.00,WNW,295,1.0,1.0,67,-99.99,,,-99.99,,2013-06-12 13:12:00,
2013-06-12 08:22:00,78.0,66.0,-100.00,WNW,295,1.0,1.0,67,-99.99,,,-99.99,,2013-06-12 13:22:00,
2013-06-12 08:33:00,78.0,66.0,-100.00,WNW,295,1.0,1.0,67,-99.99,,,-99.99,,2013-06-12 13:33:00,
2013-06-12 08:43:00,76.0,64.0,-100.00,West,280,1.0,1.0,66,-99.99,,,-99.99,,2013-06-12 13:43:00,
2013-06-12 08:53:00,76.0,64.0,-100.00,West,280,1.0,1.0,66,-99.99,,,-99.99,,2013-06-12 13:53:00,
2013-06-12 09:02:00,76.0,64.0,-100.00,West,280,1.0,1.0,66,-99.99,,,-99.99,,2013-06-12 14:02:00,
2013-06-12 09:11:00,82.0,69.0,-100.00,WNW,300,1.0,1.0,65,-99.99,,,-99.99,,2013-06-12 14:11:00,
2013-06-12 09:24:00,82.0,69.0,-100.00,WNW,300,1.0,1.0,65,-99.99,,,-99.99,,2013-06-12 14:24:00,
2013-06-12 09:33:00,77.0,64.0,-100.00,West,280,1.0,1.0,64,-99.99,,,-99.99,,2013-06-12 14:33:00,
2013-06-12 09:43:00,77.0,64.0,-100.00,West,280,1.0,1.0,64,-99.99,,,-99.99,,2013-06-12 14:43:00,
2013-06-12 09:53:00,77.0,64.0,-100.00,West,280,1.0,1.0,64,-99.99,,,-99.99,,2013-06-12 14:53:00,
2013-06-12 10:01:00,83.0,66.0,-100.00,WNW,300,1.0,1.0,56,-99.99,,,-99.99,,2013-06-12 15:01:00,
2013-06-12 10:12:00,78.0,61.0,-100.00,WNW,285,1.0,1.0,57,-99.99,,,-99.99,,2013-06-12 15:12:00,
2013-06-12 10:33:00,79.0,61.0,-100.00,West,270,1.0,1.0,54,-99.99,,,-99.99,,2013-06-12 15:33:00,
2013-06-12 11:01:00,83.0,62.0,-100.00,West,260,1.0,1.0,50,-99.99,,,-99.99,,2013-06-12 16:01:00,
2013-06-12 11:32:00,85.0,66.0,-100.00,West,280,1.0,1.0,54,-99.99,,,-99.99,,2013-06-12 16:32:00,
2013-06-12 11:43:00,85.0,66.0,-100.00,West,280,1.0,1.0,54,-99.99,,,-99.99,,2013-06-12 16:43:00,
2013-06-12 11:53:00,85.0,66.0,-100.00,West,280,1.0,1.0,54,-99.99,,,-99.99,,2013-06-12 16:53:00,
2013-06-12 12:01:00,82.0,59.0,-100.00,SW,230,1.0,1.0,47,-99.99,,,-99.99,,2013-06-12 17:01:00,
2013-06-12 12:33:00,85.0,62.0,-100.00,SSW,200,1.0,1.0,46,-99.99,,,-99.99,,2013-06-12 17:33:00,
2013-06-12 13:12:00,90.0,64.0,-100.00,SSW,205,1.0,1.0,43,-99.99,,,-99.99,,2013-06-12 18:12:00,
2013-06-12 13:22:00,90.0,64.0,-100.00,SSW,205,1.0,1.0,43,-99.99,,,-99.99,,2013-06-12 18:22:00,
2013-06-12 13:32:00,90.0,64.0,-100.00,SSW,205,1.0,1.0,43,-99.99,,,-99.99,,2013-06-12 18:32:00,
2013-06-12 13:43:00,93.0,65.0,-100.00,SW,220,1.0,1.0,41,-99.99,,,-99.99,,2013-06-12 18:43:00,
2013-06-12 13:53:00,93.0,65.0,-100.00,SW,220,1.0,1.0,41,-99.99,,,-99.99,,2013-06-12 18:53:00,
2013-06-12 14:01:00,91.0,69.0,-100.00,SW,220,1.0,1.0,48,-99.99,,,-99.99,,2013-06-12 19:01:00,
2013-06-12 14:11:00,91.0,69.0,-100.00,SW,220,1.0,1.0,48,-99.99,,,-99.99,,2013-06-12 19:11:00,
2013-06-12 14:22:00,91.0,69.0,-100.00,SW,220,1.0,1.0,48,-99.99,,,-99.99,,2013-06-12 19:22:00,
2013-06-12 14:32:00,94.0,66.0,-100.00,WSW,250,1.0,1.0,40,-99.99,,,-99.99,,2013-06-12 19:32:00,
2013-06-12 14:43:00,94.0,66.0,-100.00,WSW,250,1.0,1.0,40,-99.99,,,-99.99,,2013-06-12 19:43:00,
2013-06-12 14:52:00,94.0,66.0,-100.00,WSW,250,1.0,1.0,40,-99.99,,,-99.99,,2013-06-12 19:52:00,
2013-06-12 15:01:00,92.0,62.0,-100.00,SW,235,1.0,1.0,37,-99.99,,,-99.99,,2013-06-12 20:01:00,
2013-06-12 15:32:00,96.0,64.0,-100.00,SW,230,1.0,1.0,35,-99.99,,,-99.99,,2013-06-12 20:32:00,
2013-06-12 16:01:00,96.0,62.0,-100.00,SW,225,1.0,1.0,33,-99.99,,,-99.99,,2013-06-12 21:01:00,
2013-06-12 18:12:00,91.0,66.0,-100.00,WSW,240,1.0,1.0,44,-99.99,,,-99.99,,2013-06-12 23:12:00,
2013-06-12 18:22:00,91.0,66.0,-100.00,WSW,240,1.0,1.0,44,-99.99,,,-99.99,,2013-06-12 23:22:00,
2013-06-12 18:32:00,91.0,66.0,-100.00,WSW,240,1.0,1.0,44,-99.99,,,-99.99,,2013-06-12 23:32:00,
2013-06-12 18:42:00,91.0,64.0,-100.00,WSW,245,1.0,1.0,41,-99.99,,,-99.99,,2013-06-12 23:42:00,
2013-06-12 18:53:00,91.0,64.0,-100.00,WSW,245,1.0,1.0,41,-99.99,,,-99.99,,2013-06-12 23:53:00,
2013-06-12 19:01:00,91.0,64.0,-100.00,WSW,245,1.0,1.0,41,-99.99,,,-99.99,,2013-06-13 00:01:00,
2013-06-12 19:32:00,89.0,64.0,-100.00,WSW,250,1.0,1.0,44,-99.99,,,-99.99,,2013-06-13 00:32:00,
2013-06-12 19:42:00,91.0,64.0,-100.00,WSW,255,1.0,1.0,42,-99.99,,,-99.99,,2013-06-13 00:42:00,
2013-06-12 21:02:00,88.0,62.0,-100.00,WNW,290,1.0,1.0,42,-99.99,,,-99.99,,2013-06-13 02:02:00,
2013-06-12 22:12:00,81.0,59.0,-100.00,NW,305,1.0,1.0,47,-99.99,,,-99.99,,2013-06-13 03:12:00,
2013-06-12 22:33:00,81.0,59.0,-100.00,NW,305,1.0,1.0,48,-99.99,,,-99.99,,2013-06-13 03:33:00,
2013-06-12 23:01:00,83.0,64.0,-100.00,NW,305,1.0,1.0,52,-99.99,,,-99.99,,2013-06-13 04:01:00,
2013-06-12 23:43:00,84.0,67.0,-100.00,NW,310,1.0,1.0,57,-99.99,,,-99.99,,2013-06-13 04:43:00,
2013-06-12 23:54:00,84.0,67.0,-100.00,NW,310,1.0,1.0,57,-99.99,,,-99.99,,2013-06-13 04:54:00,